SEJ1ND VECC-VAPO
Flight info
| Callsign | SEJ1ND |
|---|---|
| Flight time | 2h 6m |
| Altitude | 38000 |
| Route | FI19L DCT D314O DCT CC201 DCT JJS G450 AAU DCT PAPMA DCT CI28 DCT FI28 |
| Aircraft | B737/M-SDE2E3FGHIRWXY/LB1 |
Departure
| Time | 2026-05-04 15:13 |
|---|---|
| Airport | Netaji Subhash Chandra Bose International Airport (VECC) |
Arrival
| Time | 2026-05-04 17:20 |
|---|---|
| Airport | Pune International Airport (VAPO) |
| Time | Latitude | Longitude | Altitude | Speed | Heading |
|---|---|---|---|---|---|
| 2026-05-04 14:43 | 22.64388 | 88.44071 | 28 ft | 0 kts | 277° |
| 2026-05-04 14:57 | 22.64387 | 88.44077 | 28 ft | 4 kts | 277° |
| 2026-05-04 14:57 | 22.64384 | 88.44106 | 28 ft | 4 kts | 277° |
| 2026-05-04 14:57 | 22.64380 | 88.44134 | 28 ft | 4 kts | 284° |
| 2026-05-04 14:58 | 22.64368 | 88.44158 | 28 ft | 4 kts | 327° |
| 2026-05-04 14:58 | 22.64349 | 88.44164 | 28 ft | 1 kts | 7° |
| 2026-05-04 14:58 | 22.64345 | 88.44163 | 28 ft | 0 kts | 7° |
| 2026-05-04 15:03 | 22.64362 | 88.44166 | 28 ft | 6 kts | 7° |
| 2026-05-04 15:03 | 22.64415 | 88.44173 | 28 ft | 9 kts | 7° |
| 2026-05-04 15:03 | 22.64483 | 88.44181 | 28 ft | 11 kts | 6° |
| 2026-05-04 15:04 | 22.64567 | 88.44192 | 28 ft | 13 kts | 7° |
| 2026-05-04 15:04 | 22.64664 | 88.44205 | 28 ft | 15 kts | 7° |
| 2026-05-04 15:04 | 22.64775 | 88.44219 | 28 ft | 17 kts | 7° |
| 2026-05-04 15:04 | 22.64898 | 88.44236 | 28 ft | 19 kts | 7° |
| 2026-05-04 15:05 | 22.65033 | 88.44255 | 28 ft | 20 kts | 17° |
| 2026-05-04 15:05 | 22.65109 | 88.44245 | 28 ft | 1 kts | 290° |
| 2026-05-04 15:05 | 22.65115 | 88.44246 | 28 ft | 1 kts | 3° |
| 2026-05-04 15:05 | 22.65116 | 88.44253 | 28 ft | 1 kts | 68° |
| 2026-05-04 15:06 | 22.65119 | 88.44272 | 28 ft | 4 kts | 85° |
| 2026-05-04 15:06 | 22.65114 | 88.44314 | 27 ft | 8 kts | 102° |
| 2026-05-04 15:06 | 22.65111 | 88.44383 | 27 ft | 11 kts | 71° |
| 2026-05-04 15:07 | 22.65281 | 88.44441 | 27 ft | 17 kts | 7° |
| 2026-05-04 15:07 | 22.65408 | 88.44454 | 28 ft | 19 kts | 6° |
| 2026-05-04 15:07 | 22.65548 | 88.44471 | 28 ft | 22 kts | 6° |
| 2026-05-04 15:07 | 22.65707 | 88.44488 | 28 ft | 24 kts | 0° |
| 2026-05-04 15:08 | 22.65877 | 88.44459 | 28 ft | 24 kts | 351° |
| 2026-05-04 15:08 | 22.66040 | 88.44461 | 28 ft | 23 kts | 6° |
| 2026-05-04 15:08 | 22.66196 | 88.44479 | 27 ft | 22 kts | 6° |
| 2026-05-04 15:08 | 22.66348 | 88.44496 | 27 ft | 22 kts | 5° |
| 2026-05-04 15:09 | 22.66503 | 88.44516 | 27 ft | 24 kts | 6° |
| 2026-05-04 15:09 | 22.66665 | 88.44549 | 27 ft | 23 kts | 12° |
| 2026-05-04 15:09 | 22.66822 | 88.44578 | 27 ft | 22 kts | 4° |
| 2026-05-04 15:10 | 22.67124 | 88.44613 | 28 ft | 21 kts | 6° |
| 2026-05-04 15:10 | 22.67253 | 88.44641 | 28 ft | 13 kts | 38° |
| 2026-05-04 15:10 | 22.67332 | 88.44806 | 28 ft | 12 kts | 67° |
| 2026-05-04 15:11 | 22.67335 | 88.44831 | 28 ft | 0 kts | 89° |
| 2026-05-04 15:11 | 22.67335 | 88.44839 | 28 ft | 4 kts | 89° |
| 2026-05-04 15:11 | 22.67333 | 88.44890 | 29 ft | 10 kts | 98° |
| 2026-05-04 15:11 | 22.67315 | 88.44977 | 30 ft | 14 kts | 120° |
| 2026-05-04 15:12 | 22.67290 | 88.44996 | 30 ft | 3 kts | 185° |
| 2026-05-04 15:12 | 22.67243 | 88.44990 | 30 ft | 11 kts | 187° |
| 2026-05-04 15:12 | 22.67144 | 88.44978 | 28 ft | 18 kts | 186° |
| 2026-05-04 15:12 | 22.66880 | 88.44948 | 27 ft | 65 kts | 186° |
| 2026-05-04 15:13 | 22.66103 | 88.44867 | 38 ft | 156 kts | 182° |
| 2026-05-04 15:13 | 22.64849 | 88.44739 | 674 ft | 197 kts | 183° |
| 2026-05-04 15:13 | 22.63914 | 88.44637 | 1231 ft | 216 kts | 188° |
| 2026-05-04 15:13 | 22.62661 | 88.43934 | 2166 ft | 204 kts | 227° |
| 2026-05-04 15:14 | 22.62038 | 88.42488 | 2579 ft | 227 kts | 252° |
| 2026-05-04 15:14 | 22.61632 | 88.40758 | 2936 ft | 243 kts | 254° |
| 2026-05-04 15:14 | 22.61204 | 88.38927 | 3331 ft | 263 kts | 253° |
| 2026-05-04 15:14 | 22.60724 | 88.36976 | 3963 ft | 272 kts | 253° |
| 2026-05-04 15:15 | 22.60214 | 88.34987 | 4771 ft | 275 kts | 253° |
| 2026-05-04 15:15 | 22.59682 | 88.32987 | 5569 ft | 278 kts | 252° |
| 2026-05-04 15:15 | 22.59132 | 88.30967 | 6359 ft | 282 kts | 252° |
| 2026-05-04 15:16 | 22.57998 | 88.26859 | 8027 ft | 287 kts | 253° |
| 2026-05-04 15:16 | 22.57570 | 88.24749 | 8912 ft | 290 kts | 267° |
| 2026-05-04 15:16 | 22.57691 | 88.20364 | 10466 ft | 305 kts | 273° |
| 2026-05-04 15:17 | 22.57811 | 88.17961 | 10661 ft | 333 kts | 273° |
| 2026-05-04 15:17 | 22.58064 | 88.12615 | 11245 ft | 371 kts | 273° |
| 2026-05-04 15:17 | 22.58186 | 88.09804 | 11934 ft | 376 kts | 272° |
| 2026-05-04 15:18 | 22.58302 | 88.06974 | 12713 ft | 378 kts | 272° |
| 2026-05-04 15:18 | 22.58416 | 88.04124 | 13440 ft | 381 kts | 272° |
| 2026-05-04 15:18 | 22.58527 | 88.01239 | 14086 ft | 386 kts | 272° |
| 2026-05-04 15:19 | 22.58749 | 87.95383 | 15390 ft | 391 kts | 272° |
| 2026-05-04 15:19 | 22.58859 | 87.92434 | 16033 ft | 394 kts | 272° |
| 2026-05-04 15:19 | 22.59077 | 87.86510 | 17265 ft | 399 kts | 272° |
| 2026-05-04 15:20 | 22.59189 | 87.83454 | 17864 ft | 402 kts | 272° |
| 2026-05-04 15:20 | 22.59300 | 87.80412 | 18392 ft | 405 kts | 272° |
| 2026-05-04 15:20 | 22.59410 | 87.77390 | 18867 ft | 408 kts | 271° |
| 2026-05-04 15:20 | 22.59522 | 87.74270 | 19363 ft | 410 kts | 271° |
| 2026-05-04 15:21 | 22.59632 | 87.71216 | 19836 ft | 413 kts | 271° |
| 2026-05-04 15:21 | 22.59743 | 87.68101 | 20301 ft | 415 kts | 271° |
| 2026-05-04 15:21 | 22.59966 | 87.61819 | 21189 ft | 420 kts | 271° |
| 2026-05-04 15:22 | 22.60077 | 87.58657 | 21613 ft | 422 kts | 271° |
| 2026-05-04 15:22 | 22.60188 | 87.55475 | 22028 ft | 424 kts | 271° |
| 2026-05-04 15:22 | 22.60411 | 87.49052 | 22818 ft | 429 kts | 270° |
| 2026-05-04 15:23 | 22.60522 | 87.45817 | 23197 ft | 431 kts | 270° |
| 2026-05-04 15:23 | 22.60632 | 87.42609 | 23538 ft | 433 kts | 270° |
| 2026-05-04 15:23 | 22.60743 | 87.39342 | 23843 ft | 434 kts | 270° |
| 2026-05-04 15:23 | 22.60853 | 87.36072 | 24172 ft | 435 kts | 270° |
| 2026-05-04 15:24 | 22.61073 | 87.29523 | 24794 ft | 436 kts | 270° |
| 2026-05-04 15:24 | 22.61291 | 87.22938 | 25373 ft | 439 kts | 270° |
| 2026-05-04 15:25 | 22.61398 | 87.19652 | 25640 ft | 440 kts | 270° |
| 2026-05-04 15:25 | 22.61507 | 87.16325 | 25910 ft | 441 kts | 270° |
| 2026-05-04 15:25 | 22.61614 | 87.13014 | 26173 ft | 442 kts | 270° |
| 2026-05-04 15:26 | 22.61827 | 87.06343 | 26668 ft | 444 kts | 270° |
| 2026-05-04 15:26 | 22.61933 | 87.03001 | 26909 ft | 445 kts | 270° |
| 2026-05-04 15:26 | 22.62144 | 86.96288 | 27348 ft | 447 kts | 270° |
| 2026-05-04 15:27 | 22.62249 | 86.92914 | 27552 ft | 449 kts | 270° |
| 2026-05-04 15:27 | 22.62457 | 86.86150 | 27940 ft | 451 kts | 270° |
| 2026-05-04 15:28 | 22.62664 | 86.79345 | 28302 ft | 453 kts | 270° |
| 2026-05-04 15:28 | 22.62766 | 86.75933 | 28468 ft | 454 kts | 270° |
| 2026-05-04 15:28 | 22.62970 | 86.69083 | 28813 ft | 456 kts | 270° |
| 2026-05-04 15:29 | 22.63071 | 86.65656 | 29045 ft | 455 kts | 270° |
| 2026-05-04 15:30 | 22.63468 | 86.52019 | 30117 ft | 452 kts | 271° |
| 2026-05-04 15:30 | 22.66831 | 86.42525 | 30866 ft | 459 kts | 299° |
| 2026-05-04 15:31 | 22.70278 | 86.36710 | 31386 ft | 459 kts | 299° |
| 2026-05-04 15:31 | 22.71982 | 86.33795 | 31665 ft | 457 kts | 298° |
| 2026-05-04 15:32 | 22.76971 | 86.25054 | 32654 ft | 452 kts | 298° |
| 2026-05-04 15:32 | 22.79951 | 86.19105 | 33262 ft | 445 kts | 284° |
| 2026-05-04 15:33 | 22.80419 | 86.12563 | 33958 ft | 435 kts | 259° |
| 2026-05-04 15:34 | 22.78416 | 86.02986 | 34796 ft | 434 kts | 256° |
| 2026-05-04 15:34 | 22.77712 | 85.99807 | 35110 ft | 433 kts | 256° |
| 2026-05-04 15:34 | 22.76343 | 85.93472 | 35739 ft | 431 kts | 257° |
| 2026-05-04 15:35 | 22.75010 | 85.87153 | 36313 ft | 429 kts | 257° |
| 2026-05-04 15:35 | 22.74358 | 85.84043 | 36613 ft | 428 kts | 257° |
| 2026-05-04 15:35 | 22.73700 | 85.80903 | 36904 ft | 427 kts | 257° |
| 2026-05-04 15:36 | 22.72387 | 85.74641 | 37425 ft | 426 kts | 257° |
| 2026-05-04 15:36 | 22.71730 | 85.71517 | 37685 ft | 425 kts | 257° |
| 2026-05-04 15:36 | 22.71074 | 85.68401 | 37934 ft | 424 kts | 257° |
| 2026-05-04 15:37 | 22.69751 | 85.62127 | 37975 ft | 427 kts | 257° |
| 2026-05-04 15:37 | 22.68430 | 85.55876 | 37973 ft | 424 kts | 257° |
| 2026-05-04 15:38 | 22.67113 | 85.49656 | 37975 ft | 423 kts | 257° |
| 2026-05-04 15:38 | 22.65798 | 85.43456 | 37979 ft | 422 kts | 257° |
| 2026-05-04 15:39 | 22.64480 | 85.37260 | 37975 ft | 423 kts | 257° |
| 2026-05-04 15:40 | 22.62493 | 85.27936 | 37975 ft | 424 kts | 256° |
| 2026-05-04 15:40 | 22.61160 | 85.21699 | 37973 ft | 426 kts | 256° |
| 2026-05-04 15:41 | 22.59822 | 85.15445 | 37971 ft | 428 kts | 256° |
| 2026-05-04 15:41 | 22.58476 | 85.09172 | 37970 ft | 429 kts | 256° |
| 2026-05-04 15:42 | 22.57124 | 85.02880 | 37960 ft | 429 kts | 256° |
| 2026-05-04 15:42 | 22.55777 | 84.96625 | 37966 ft | 430 kts | 256° |
| 2026-05-04 15:43 | 22.54418 | 84.90324 | 37953 ft | 430 kts | 256° |
| 2026-05-04 15:43 | 22.53056 | 84.84022 | 37954 ft | 430 kts | 256° |
| 2026-05-04 15:44 | 22.51660 | 84.77734 | 37952 ft | 430 kts | 255° |
| 2026-05-04 15:44 | 22.50232 | 84.71458 | 37947 ft | 430 kts | 255° |
| 2026-05-04 15:45 | 22.48804 | 84.65183 | 37952 ft | 429 kts | 255° |
| 2026-05-04 15:45 | 22.47381 | 84.58914 | 37944 ft | 429 kts | 255° |
| 2026-05-04 15:46 | 22.45957 | 84.52651 | 37945 ft | 429 kts | 255° |
| 2026-05-04 15:46 | 22.44534 | 84.46397 | 37942 ft | 428 kts | 255° |
| 2026-05-04 15:47 | 22.43107 | 84.40140 | 37938 ft | 429 kts | 255° |
| 2026-05-04 15:47 | 22.41678 | 84.33889 | 37937 ft | 429 kts | 256° |
| 2026-05-04 15:48 | 22.40244 | 84.27626 | 37934 ft | 429 kts | 256° |
| 2026-05-04 15:48 | 22.38083 | 84.18208 | 37938 ft | 431 kts | 256° |
| 2026-05-04 15:49 | 22.36632 | 84.11902 | 37933 ft | 433 kts | 256° |
| 2026-05-04 15:49 | 22.35174 | 84.05572 | 37936 ft | 435 kts | 256° |
| 2026-05-04 15:50 | 22.33709 | 83.99225 | 37937 ft | 436 kts | 256° |
| 2026-05-04 15:50 | 22.32237 | 83.92861 | 37929 ft | 437 kts | 256° |
| 2026-05-04 15:51 | 22.30789 | 83.86522 | 37934 ft | 437 kts | 256° |
| 2026-05-04 15:51 | 22.29345 | 83.80143 | 37926 ft | 437 kts | 256° |
| 2026-05-04 15:52 | 22.27898 | 83.73766 | 37923 ft | 437 kts | 256° |
| 2026-05-04 15:52 | 22.26446 | 83.67394 | 37920 ft | 437 kts | 256° |
| 2026-05-04 15:53 | 22.24992 | 83.61026 | 37915 ft | 437 kts | 255° |
| 2026-05-04 15:53 | 22.23536 | 83.54663 | 37916 ft | 436 kts | 255° |
| 2026-05-04 15:54 | 22.22079 | 83.48305 | 37899 ft | 436 kts | 255° |
| 2026-05-04 15:54 | 22.20621 | 83.41956 | 37901 ft | 436 kts | 255° |
| 2026-05-04 15:55 | 22.19164 | 83.35616 | 37895 ft | 435 kts | 255° |
| 2026-05-04 15:55 | 22.17703 | 83.29287 | 37887 ft | 435 kts | 255° |
| 2026-05-04 15:56 | 22.16239 | 83.22963 | 37890 ft | 434 kts | 255° |
| 2026-05-04 15:56 | 22.14774 | 83.16647 | 37880 ft | 434 kts | 255° |
| 2026-05-04 15:57 | 22.13309 | 83.10340 | 37874 ft | 433 kts | 255° |
| 2026-05-04 15:57 | 22.11842 | 83.04038 | 37874 ft | 433 kts | 255° |
| 2026-05-04 15:58 | 22.10374 | 82.97737 | 37863 ft | 433 kts | 255° |
| 2026-05-04 15:58 | 22.09153 | 82.92508 | 37860 ft | 433 kts | 255° |
| 2026-05-04 15:59 | 22.07681 | 82.86214 | 37859 ft | 433 kts | 255° |
| 2026-05-04 15:59 | 22.05967 | 82.78900 | 37851 ft | 433 kts | 255° |
| 2026-05-04 16:00 | 22.04485 | 82.72589 | 37861 ft | 438 kts | 255° |
| 2026-05-04 16:00 | 22.03224 | 82.67228 | 37859 ft | 443 kts | 255° |
| 2026-05-04 16:01 | 22.01704 | 82.60776 | 37835 ft | 446 kts | 255° |
| 2026-05-04 16:01 | 22.00175 | 82.54298 | 37828 ft | 445 kts | 255° |
| 2026-05-04 16:02 | 21.98649 | 82.47846 | 37823 ft | 444 kts | 255° |
| 2026-05-04 16:03 | 21.96361 | 82.38190 | 37821 ft | 444 kts | 255° |
| 2026-05-04 16:03 | 21.94841 | 82.31793 | 37811 ft | 444 kts | 255° |
| 2026-05-04 16:04 | 21.93309 | 82.25356 | 37803 ft | 444 kts | 255° |
| 2026-05-04 16:04 | 21.91006 | 82.15704 | 37811 ft | 444 kts | 255° |
| 2026-05-04 16:05 | 21.89467 | 82.09265 | 37799 ft | 444 kts | 255° |
| 2026-05-04 16:06 | 21.87151 | 81.99600 | 37801 ft | 444 kts | 255° |
| 2026-05-04 16:07 | 21.83996 | 81.86725 | 37800 ft | 445 kts | 255° |
| 2026-05-04 16:08 | 21.80827 | 81.73846 | 37802 ft | 445 kts | 255° |
| 2026-05-04 16:09 | 21.76745 | 81.57777 | 37805 ft | 445 kts | 253° |
| 2026-05-04 16:10 | 21.73218 | 81.45014 | 37805 ft | 445 kts | 253° |
| 2026-05-04 16:11 | 21.69727 | 81.32260 | 37806 ft | 444 kts | 253° |
| 2026-05-04 16:12 | 21.64665 | 81.13205 | 37805 ft | 442 kts | 253° |
| 2026-05-04 16:13 | 21.61294 | 81.00506 | 37799 ft | 442 kts | 253° |
| 2026-05-04 16:14 | 21.57911 | 80.87814 | 37799 ft | 442 kts | 253° |
| 2026-05-04 16:16 | 21.53663 | 80.71932 | 37795 ft | 442 kts | 253° |
| 2026-05-04 16:17 | 21.49396 | 80.56041 | 37779 ft | 443 kts | 253° |
| 2026-05-04 16:18 | 21.45982 | 80.43361 | 37774 ft | 444 kts | 253° |
| 2026-05-04 16:19 | 21.41673 | 80.27406 | 37767 ft | 445 kts | 253° |
| 2026-05-04 16:20 | 21.37350 | 80.11462 | 37764 ft | 445 kts | 253° |
| 2026-05-04 16:22 | 21.33007 | 79.95511 | 37758 ft | 446 kts | 253° |
| 2026-05-04 16:23 | 21.27773 | 79.76374 | 37757 ft | 446 kts | 253° |
| 2026-05-04 16:25 | 21.22532 | 79.57303 | 37764 ft | 446 kts | 253° |
| 2026-05-04 16:26 | 21.16376 | 79.35016 | 37765 ft | 446 kts | 254° |
| 2026-05-04 16:28 | 21.11960 | 79.19104 | 37771 ft | 446 kts | 253° |
| 2026-05-04 16:29 | 21.05483 | 78.96945 | 37775 ft | 446 kts | 251° |
| 2026-05-04 16:31 | 21.00358 | 78.81335 | 37768 ft | 446 kts | 251° |
| 2026-05-04 16:32 | 20.94248 | 78.62500 | 37774 ft | 448 kts | 251° |
| 2026-05-04 16:33 | 20.90142 | 78.49891 | 37766 ft | 450 kts | 251° |
| 2026-05-04 16:34 | 20.87047 | 78.40410 | 37764 ft | 450 kts | 251° |
| 2026-05-04 16:35 | 20.80834 | 78.21438 | 37759 ft | 451 kts | 251° |
| 2026-05-04 16:36 | 20.77716 | 78.11944 | 37767 ft | 451 kts | 251° |
| 2026-05-04 16:37 | 20.74608 | 78.02500 | 37769 ft | 451 kts | 251° |
| 2026-05-04 16:38 | 20.70433 | 77.89843 | 37770 ft | 452 kts | 251° |
| 2026-05-04 16:39 | 20.65256 | 77.74008 | 37771 ft | 452 kts | 251° |
| 2026-05-04 16:40 | 20.61139 | 77.61331 | 37775 ft | 452 kts | 251° |
| 2026-05-04 16:41 | 20.55970 | 77.45487 | 37790 ft | 452 kts | 251° |
| 2026-05-04 16:43 | 20.51060 | 77.29548 | 37789 ft | 453 kts | 253° |
| 2026-05-04 16:43 | 20.48199 | 77.19947 | 37794 ft | 453 kts | 253° |
| 2026-05-04 16:45 | 20.42427 | 77.00803 | 37796 ft | 453 kts | 253° |
| 2026-05-04 16:46 | 20.37585 | 76.84801 | 37804 ft | 454 kts | 253° |
| 2026-05-04 16:47 | 20.33651 | 76.73213 | 37817 ft | 454 kts | 250° |
| 2026-05-04 16:48 | 20.28757 | 76.59604 | 37819 ft | 455 kts | 250° |
| 2026-05-04 16:49 | 20.24650 | 76.48022 | 37827 ft | 455 kts | 250° |
| 2026-05-04 16:50 | 20.20169 | 76.35412 | 37832 ft | 456 kts | 250° |
| 2026-05-04 16:51 | 20.16811 | 76.25988 | 37834 ft | 456 kts | 250° |
| 2026-05-04 16:52 | 20.12307 | 76.13372 | 37837 ft | 456 kts | 250° |
| 2026-05-04 16:53 | 20.08919 | 76.03906 | 37837 ft | 456 kts | 250° |
| 2026-05-04 16:54 | 20.04391 | 75.91281 | 37844 ft | 457 kts | 250° |
| 2026-05-04 16:55 | 19.97576 | 75.72341 | 37853 ft | 457 kts | 250° |
| 2026-05-04 16:56 | 19.91878 | 75.56560 | 37857 ft | 457 kts | 250° |
| 2026-05-04 16:57 | 19.88454 | 75.47095 | 37860 ft | 458 kts | 250° |
| 2026-05-04 16:58 | 19.84145 | 75.38074 | 37852 ft | 461 kts | 232° |
| 2026-05-04 16:58 | 19.82061 | 75.35487 | 37869 ft | 461 kts | 230° |
| 2026-05-04 17:00 | 19.69275 | 75.20160 | 37859 ft | 462 kts | 230° |
| 2026-05-04 17:01 | 19.58699 | 75.07331 | 37850 ft | 457 kts | 230° |
| 2026-05-04 17:01 | 19.54550 | 75.02309 | 36614 ft | 453 kts | 231° |
| 2026-05-04 17:02 | 19.50403 | 74.97291 | 35073 ft | 453 kts | 231° |
| 2026-05-04 17:02 | 19.46222 | 74.92236 | 33195 ft | 459 kts | 231° |
| 2026-05-04 17:03 | 19.44114 | 74.89688 | 32209 ft | 460 kts | 231° |
| 2026-05-04 17:03 | 19.42001 | 74.87137 | 31208 ft | 461 kts | 231° |
| 2026-05-04 17:03 | 19.37748 | 74.82005 | 28869 ft | 465 kts | 231° |
| 2026-05-04 17:04 | 19.33505 | 74.76891 | 26968 ft | 456 kts | 230° |
| 2026-05-04 17:04 | 19.29369 | 74.71908 | 25325 ft | 445 kts | 230° |
| 2026-05-04 17:05 | 19.25319 | 74.67033 | 23663 ft | 438 kts | 230° |
| 2026-05-04 17:05 | 19.20937 | 74.62599 | 21607 ft | 438 kts | 218° |
| 2026-05-04 17:06 | 19.16078 | 74.58819 | 19859 ft | 429 kts | 218° |
| 2026-05-04 17:06 | 19.13719 | 74.56983 | 19038 ft | 425 kts | 218° |
| 2026-05-04 17:07 | 19.09015 | 74.53293 | 17310 ft | 417 kts | 218° |
| 2026-05-04 17:07 | 19.07449 | 74.52058 | 16736 ft | 414 kts | 218° |
| 2026-05-04 17:07 | 19.04423 | 74.49667 | 15659 ft | 407 kts | 218° |
| 2026-05-04 17:07 | 19.02168 | 74.47885 | 14844 ft | 403 kts | 218° |
| 2026-05-04 17:08 | 18.99933 | 74.46119 | 14050 ft | 399 kts | 218° |
| 2026-05-04 17:08 | 18.95530 | 74.42640 | 12390 ft | 391 kts | 218° |
| 2026-05-04 17:08 | 18.93370 | 74.40935 | 11612 ft | 386 kts | 218° |
| 2026-05-04 17:09 | 18.91233 | 74.39248 | 10833 ft | 381 kts | 217° |
| 2026-05-04 17:09 | 18.89153 | 74.37608 | 10575 ft | 364 kts | 217° |
| 2026-05-04 17:09 | 18.87165 | 74.36040 | 10381 ft | 346 kts | 217° |
| 2026-05-04 17:10 | 18.83489 | 74.33144 | 10088 ft | 314 kts | 217° |
| 2026-05-04 17:10 | 18.78532 | 74.29238 | 9320 ft | 287 kts | 218° |
| 2026-05-04 17:11 | 18.76958 | 74.27999 | 8882 ft | 279 kts | 218° |
| 2026-05-04 17:11 | 18.75429 | 74.26796 | 8494 ft | 270 kts | 218° |
| 2026-05-04 17:11 | 18.72457 | 74.24457 | 7800 ft | 266 kts | 219° |
| 2026-05-04 17:12 | 18.70979 | 74.23294 | 7448 ft | 265 kts | 219° |
| 2026-05-04 17:12 | 18.68046 | 74.20986 | 6735 ft | 264 kts | 219° |
| 2026-05-04 17:13 | 18.63671 | 74.17547 | 5882 ft | 253 kts | 220° |
| 2026-05-04 17:14 | 18.59770 | 74.14488 | 5697 ft | 212 kts | 220° |
| 2026-05-04 17:14 | 18.58633 | 74.13598 | 5607 ft | 196 kts | 221° |
| 2026-05-04 17:14 | 18.57353 | 74.11505 | 5329 ft | 161 kts | 265° |
| 2026-05-04 17:15 | 18.57263 | 74.10359 | 5226 ft | 153 kts | 269° |
| 2026-05-04 17:15 | 18.57214 | 74.08138 | 4835 ft | 149 kts | 273° |
| 2026-05-04 17:16 | 18.57321 | 74.06005 | 4432 ft | 141 kts | 274° |
| 2026-05-04 17:16 | 18.57521 | 74.02885 | 3859 ft | 141 kts | 273° |
| 2026-05-04 17:17 | 18.57588 | 74.01854 | 3689 ft | 142 kts | 272° |
| 2026-05-04 17:17 | 18.57792 | 73.98697 | 3102 ft | 142 kts | 273° |
| 2026-05-04 17:18 | 18.57860 | 73.97660 | 2923 ft | 143 kts | 274° |
| 2026-05-04 17:18 | 18.57998 | 73.95467 | 2498 ft | 148 kts | 273° |
| 2026-05-04 17:19 | 18.58141 | 73.93314 | 1989 ft | 144 kts | 275° |
| 2026-05-04 17:19 | 18.58244 | 73.91680 | 1924 ft | 67 kts | 273° |
| 2026-05-04 17:20 | 18.58268 | 73.91223 | 1923 ft | 14 kts | 266° |
| 2026-05-04 17:20 | 18.58209 | 73.91061 | 1924 ft | 6 kts | 242° |
| 2026-05-04 17:20 | 18.58189 | 73.91020 | 1923 ft | 6 kts | 243° |
| 2026-05-04 17:21 | 18.58145 | 73.90942 | 1923 ft | 6 kts | 227° |
| 2026-05-04 17:21 | 18.58047 | 73.90928 | 1924 ft | 9 kts | 177° |
| 2026-05-04 17:22 | 18.58011 | 73.90924 | 1924 ft | 5 kts | 190° |
| 2026-05-04 17:22 | 18.58005 | 73.90922 | 1924 ft | 1 kts | 191° |
| 2026-05-04 17:23 | 18.58000 | 73.90921 | 1924 ft | 0 kts | 191° |